createdAt,value
2019-05-03T00:00:43.382Z,84.50
2019-05-03T00:01:43.347Z,84.70
2019-05-03T00:02:43.337Z,84.50
2019-05-03T00:03:43.327Z,84.29
2019-05-03T00:04:43.330Z,84.29
2019-05-03T00:05:43.340Z,84.39
2019-05-03T00:06:43.312Z,84.39
2019-05-03T00:07:43.283Z,84.09
2019-05-03T00:08:43.271Z,84.29
2019-05-03T00:09:43.253Z,84.19
2019-05-03T00:10:43.265Z,83.88
2019-05-03T00:11:43.254Z,84.33
2019-05-03T00:12:43.225Z,83.98
2019-05-03T00:13:43.213Z,84.29
2019-05-03T00:14:43.205Z,84.29
2019-05-03T00:15:43.192Z,84.03
2019-05-03T00:16:43.222Z,84.09
2019-05-03T00:17:43.197Z,84.09
2019-05-03T00:18:43.160Z,84.70
2019-05-03T00:19:44.891Z,83.47
2019-05-03T00:20:43.154Z,83.72
2019-05-03T00:21:43.126Z,82.96
2019-05-03T00:22:43.121Z,83.06
2019-05-03T00:23:43.122Z,83.06
2019-05-03T00:24:43.090Z,83.41
2019-05-03T00:25:43.101Z,82.55
2019-05-03T00:26:43.082Z,82.65
2019-05-03T00:27:43.060Z,83.17
2019-05-03T00:28:43.061Z,82.76
2019-05-03T00:29:43.057Z,82.45
2019-05-03T00:30:43.029Z,82.55
2019-05-03T00:31:43.017Z,82.65
2019-05-03T00:32:43.005Z,83.27
2019-05-03T00:33:43.003Z,82.86
2019-05-03T00:34:43.006Z,82.79
2019-05-03T00:35:42.967Z,82.90
2019-05-03T00:36:42.962Z,83.00
2019-05-03T00:37:42.945Z,83.72
2019-05-03T00:38:42.931Z,83.68
2019-05-03T00:39:42.957Z,83.82
2019-05-03T00:40:42.934Z,83.92
2019-05-03T00:41:42.922Z,84.03
2019-05-03T00:42:42.950Z,84.64
2019-05-03T00:43:42.890Z,84.33
2019-05-03T00:44:42.878Z,84.64
2019-05-03T00:45:42.889Z,84.53
2019-05-03T00:46:42.870Z,84.74
2019-05-03T00:47:42.865Z,86.32
2019-05-03T00:48:43.123Z,86.07
2019-05-03T00:49:42.823Z,86.11
2019-05-03T00:50:42.818Z,85.91
2019-05-03T00:51:42.853Z,86.32
2019-05-03T00:52:42.797Z,86.52
2019-05-03T00:53:42.772Z,86.48
2019-05-03T00:54:42.821Z,86.32
2019-05-03T00:55:42.748Z,87.04
2019-05-03T00:56:44.510Z,87.24
2019-05-03T00:57:42.747Z,87.45
2019-05-03T00:58:42.732Z,88.57
2019-05-03T00:59:42.736Z,88.78
2019-05-03T01:00:42.706Z,88.98
2019-05-03T01:01:42.684Z,88.98
2019-05-03T01:02:42.687Z,88.82
2019-05-03T01:03:42.685Z,88.17
2019-05-03T01:04:42.747Z,88.62
2019-05-03T01:05:42.637Z,89.75
2019-05-03T01:06:42.644Z,89.84
2019-05-03T01:07:42.632Z,89.33
2019-05-03T01:08:42.617Z,89.43
2019-05-03T01:09:42.627Z,89.95
2019-05-03T01:10:42.604Z,90.26
2019-05-03T01:11:42.569Z,90.16
2019-05-03T01:12:42.569Z,89.95
2019-05-03T01:13:42.564Z,89.43
2019-05-03T01:14:42.558Z,89.64
2019-05-03T01:15:42.557Z,90.05
2019-05-03T01:16:42.823Z,89.54
2019-05-03T01:17:42.506Z,90.05
2019-05-03T01:18:42.569Z,90.05
2019-05-03T01:19:42.675Z,89.54
2019-05-03T01:20:42.723Z,89.03
2019-05-03T01:21:42.473Z,89.33
2019-05-03T01:22:42.577Z,89.23
2019-05-03T01:23:42.499Z,89.23
2019-05-03T01:24:42.826Z,89.54
2019-05-03T01:25:42.899Z,89.64
2019-05-03T01:26:42.432Z,90.26
2019-05-03T01:27:42.788Z,91.38
2019-05-03T01:28:42.650Z,90.91
2019-05-03T01:29:42.544Z,91.59
2019-05-03T01:30:42.577Z,92.00
2019-05-03T01:31:42.352Z,92.55
2019-05-03T01:32:42.353Z,92.66
2019-05-03T01:33:42.664Z,92.82
2019-05-03T01:34:42.353Z,92.31
2019-05-03T01:35:42.759Z,92.72
2019-05-03T01:36:42.713Z,92.97
2019-05-03T01:37:42.538Z,93.17
2019-05-03T01:38:42.457Z,92.55
2019-05-03T01:39:42.301Z,92.66
2019-05-03T01:40:42.260Z,93.07
2019-05-03T01:41:42.242Z,93.17
2019-05-03T01:42:42.721Z,92.76
2019-05-03T01:43:42.221Z,93.07
2019-05-03T01:44:42.772Z,92.46
2019-05-03T01:45:42.537Z,92.76
2019-05-03T01:46:42.259Z,93.48
2019-05-03T01:47:42.190Z,93.59
2019-05-03T01:48:42.160Z,93.48
2019-05-03T01:49:42.650Z,93.59
2019-05-03T01:50:42.559Z,93.48
2019-05-03T01:51:42.171Z,93.59
2019-05-03T01:52:42.114Z,93.48
2019-05-03T01:53:42.112Z,93.27
2019-05-03T01:54:42.717Z,93.48
2019-05-03T01:55:46.030Z,92.76
2019-05-03T01:56:55.349Z,93.79
2019-05-03T01:57:43.059Z,93.17
2019-05-03T01:58:42.051Z,93.89
2019-05-03T01:59:42.602Z,94.10
2019-05-03T02:00:42.338Z,94.20
2019-05-03T02:01:42.212Z,94.20
2019-05-03T02:02:42.103Z,94.40
2019-05-03T02:03:42.005Z,94.30
2019-05-03T02:04:41.985Z,94.20
2019-05-03T02:05:42.906Z,93.99
2019-05-03T02:06:42.514Z,93.89
2019-05-03T02:07:42.339Z,93.89
2019-05-03T02:08:41.969Z,94.51
2019-05-03T02:09:41.945Z,94.71
2019-05-03T02:10:43.625Z,94.71
2019-05-03T02:11:42.235Z,94.61
2019-05-03T02:12:41.913Z,94.30
2019-05-03T02:13:42.777Z,94.40
2019-05-03T02:14:42.215Z,95.84
2019-05-03T02:15:42.310Z,95.64
2019-05-03T02:16:42.095Z,94.92
2019-05-03T02:17:42.726Z,94.61
2019-05-03T02:18:42.417Z,95.02
2019-05-03T02:19:42.236Z,94.71
2019-05-03T02:20:41.939Z,94.20
2019-05-03T02:21:41.806Z,94.51
2019-05-03T02:22:42.839Z,94.61
2019-05-03T02:23:42.518Z,94.81
2019-05-03T02:24:42.340Z,94.61
2019-05-03T02:25:42.030Z,94.71
2019-05-03T02:26:42.483Z,94.30
2019-05-03T02:27:42.333Z,94.30
2019-05-03T02:28:42.180Z,94.30
2019-05-03T02:29:41.898Z,93.99
2019-05-03T02:30:44.037Z,94.71
2019-05-03T02:31:43.699Z,95.12
2019-05-03T02:32:43.867Z,94.92
2019-05-03T02:33:43.431Z,94.71
2019-05-03T02:34:43.854Z,94.81
2019-05-03T02:35:42.984Z,95.23
2019-05-03T02:36:42.850Z,95.64
2019-05-03T02:37:43.914Z,95.74
2019-05-03T02:38:43.007Z,95.84
2019-05-03T02:39:42.721Z,95.74
2019-05-03T02:40:42.871Z,96.04
2019-05-03T02:41:41.616Z,95.74
2019-05-03T02:42:41.587Z,95.94
2019-05-03T02:43:41.572Z,95.02
2019-05-03T02:44:41.549Z,94.92
2019-05-03T02:45:41.535Z,95.23
2019-05-03T02:46:41.547Z,96.04
2019-05-03T02:47:41.522Z,94.81
2019-05-03T02:48:41.523Z,94.81
2019-05-03T02:49:41.513Z,95.32
2019-05-03T02:50:41.476Z,95.64
2019-05-03T02:51:41.490Z,96.04
2019-05-03T02:52:41.456Z,95.94
2019-05-03T02:53:41.463Z,95.64
2019-05-03T02:54:41.449Z,95.43
2019-05-03T02:55:41.421Z,95.74
2019-05-03T02:56:41.421Z,95.74
2019-05-03T02:57:41.413Z,96.15
2019-05-03T02:58:41.396Z,95.43
2019-05-03T02:59:41.402Z,96.04
2019-05-03T03:00:41.393Z,95.78
2019-05-03T03:01:41.357Z,96.04
2019-05-03T03:02:41.366Z,96.15
2019-05-03T03:03:41.328Z,95.74
2019-05-03T03:04:41.332Z,96.04
2019-05-03T03:05:41.326Z,96.09
2019-05-03T03:06:41.333Z,96.35
2019-05-03T03:07:41.320Z,95.98
2019-05-03T03:08:41.279Z,95.89
2019-05-03T03:09:41.262Z,96.45
2019-05-03T03:10:41.269Z,96.35
2019-05-03T03:11:41.259Z,96.35
2019-05-03T03:12:41.282Z,96.15
2019-05-03T03:13:41.273Z,96.66
2019-05-03T03:14:41.219Z,96.25
2019-05-03T03:15:41.208Z,96.45
2019-05-03T03:16:41.202Z,96.15
2019-05-03T03:17:41.191Z,96.45
2019-05-03T03:18:41.218Z,96.56
2019-05-03T03:19:41.156Z,96.04
2019-05-03T03:20:41.142Z,96.15
2019-05-03T03:21:41.130Z,96.56
2019-05-03T03:22:41.139Z,96.45
2019-05-03T03:23:41.146Z,96.09
2019-05-03T03:24:41.105Z,95.94
2019-05-03T03:25:41.089Z,96.04
2019-05-03T03:26:43.249Z,96.09
2019-05-03T03:27:41.080Z,95.74
2019-05-03T03:28:41.088Z,96.04
2019-05-03T03:29:41.063Z,95.94
2019-05-03T03:30:41.032Z,96.35
2019-05-03T03:31:41.017Z,96.45
2019-05-03T03:32:41.014Z,96.45
2019-05-03T03:33:41.007Z,96.56
2019-05-03T03:34:48.335Z,96.45
2019-05-03T03:35:41.016Z,97.02
2019-05-03T03:36:54.559Z,96.77
2019-05-03T03:37:40.956Z,96.25
2019-05-03T03:38:40.950Z,96.56
2019-05-03T03:39:40.953Z,96.45
2019-05-03T03:40:40.937Z,96.40
2019-05-03T03:41:40.940Z,95.94
2019-05-03T03:42:40.896Z,95.84
2019-05-03T03:43:40.886Z,95.94
2019-05-03T03:44:40.902Z,96.04
2019-05-03T03:45:40.885Z,95.74
2019-05-03T03:46:40.879Z,95.43
2019-05-03T03:47:40.843Z,95.64
2019-05-03T03:48:40.834Z,95.98
2019-05-03T03:49:40.821Z,95.68
2019-05-03T03:50:40.827Z,96.19
2019-05-03T03:51:40.822Z,96.09
2019-05-03T03:52:40.828Z,96.19
2019-05-03T03:53:40.777Z,95.89
2019-05-03T03:54:40.768Z,95.68
2019-05-03T03:55:40.780Z,95.78
2019-05-03T03:56:54.494Z,95.68
2019-05-03T03:57:40.758Z,95.47
2019-05-03T03:58:40.748Z,96.19
2019-05-03T03:59:40.718Z,96.19
2019-05-03T04:00:40.717Z,95.98
2019-05-03T04:01:40.705Z,95.68
2019-05-03T04:02:40.686Z,95.98
2019-05-03T04:03:40.676Z,96.09
2019-05-03T04:04:40.674Z,96.09
2019-05-03T04:05:40.643Z,96.09
2019-05-03T04:06:40.656Z,95.89
2019-05-03T04:07:40.628Z,95.98
2019-05-03T04:08:40.621Z,95.78
2019-05-03T04:09:40.618Z,96.09
2019-05-03T04:10:40.608Z,95.42
2019-05-03T04:11:40.575Z,94.96
2019-05-03T04:12:40.584Z,95.78
2019-05-03T04:13:40.554Z,95.78
2019-05-03T04:14:40.556Z,95.68
2019-05-03T04:15:40.548Z,95.47
2019-05-03T04:16:40.551Z,95.89
2019-05-03T04:17:40.563Z,94.85
2019-05-03T04:18:40.504Z,95.78
2019-05-03T04:19:40.487Z,95.47
2019-05-03T04:20:40.507Z,95.57
2019-05-03T04:21:40.482Z,95.78
2019-05-03T04:22:40.494Z,96.19
2019-05-03T04:23:40.457Z,95.78
2019-05-03T04:24:40.437Z,95.83
2019-05-03T04:25:40.426Z,96.09
2019-05-03T04:26:40.431Z,95.68
2019-05-03T04:27:40.420Z,95.68
2019-05-03T04:28:40.426Z,95.98
2019-05-03T04:29:40.385Z,96.30
2019-05-03T04:30:40.371Z,96.09
2019-05-03T04:31:40.358Z,95.47
2019-05-03T04:32:40.363Z,95.68
2019-05-03T04:33:40.356Z,95.74
2019-05-03T04:34:40.365Z,95.47
2019-05-03T04:35:40.317Z,95.68
2019-05-03T04:36:40.298Z,95.74
2019-05-03T04:37:40.291Z,95.37
2019-05-03T04:38:40.298Z,94.96
2019-05-03T04:39:40.316Z,95.27
2019-05-03T04:40:40.281Z,94.85
2019-05-03T04:41:40.256Z,94.76
2019-05-03T04:42:40.235Z,95.37
2019-05-03T04:43:40.238Z,95.47
2019-05-03T04:44:40.233Z,95.98
2019-05-03T04:45:40.226Z,96.09
2019-05-03T04:46:40.192Z,95.78
2019-05-03T04:47:40.182Z,95.06
2019-05-03T04:48:40.174Z,95.68
2019-05-03T04:49:40.173Z,95.47
2019-05-03T04:50:40.180Z,95.78
2019-05-03T04:51:40.162Z,95.89
2019-05-03T04:52:40.160Z,95.68
2019-05-03T04:53:40.118Z,95.78
2019-05-03T04:54:40.103Z,96.23
2019-05-03T04:55:40.105Z,95.83
2019-05-03T04:56:40.108Z,95.78
2019-05-03T04:57:45.438Z,96.44
2019-05-03T04:58:41.065Z,96.70
2019-05-03T04:59:40.053Z,97.12
2019-05-03T05:00:40.037Z,96.65
2019-05-03T05:01:40.050Z,96.55
2019-05-03T05:02:40.039Z,96.60
2019-05-03T05:03:40.033Z,96.70
2019-05-03T05:04:40.006Z,96.40
2019-05-03T05:05:39.984Z,96.30
2019-05-03T05:06:39.976Z,96.50
2019-05-03T05:07:39.987Z,96.30
2019-05-03T05:08:39.967Z,96.60
2019-05-03T05:09:39.974Z,96.50
2019-05-03T05:10:39.927Z,96.60
2019-05-03T05:11:39.915Z,96.85
2019-05-03T05:12:39.927Z,96.81
2019-05-03T05:13:39.923Z,96.75
2019-05-03T05:14:39.914Z,96.81
2019-05-03T05:15:39.899Z,96.60
2019-05-03T05:16:39.998Z,96.60
2019-05-03T05:17:39.874Z,96.40
2019-05-03T05:18:39.853Z,96.40
2019-05-03T05:19:39.848Z,96.19
2019-05-03T05:20:39.829Z,95.98
2019-05-03T05:21:39.805Z,95.78
2019-05-03T05:22:39.805Z,95.89
2019-05-03T05:23:39.809Z,96.50
2019-05-03T05:24:39.772Z,96.91
2019-05-03T05:25:39.782Z,96.45
2019-05-03T05:26:39.758Z,96.25
2019-05-03T05:27:48.805Z,95.47
2019-05-03T05:28:39.737Z,95.89
2019-05-03T05:29:39.728Z,95.68
2019-05-03T05:30:39.716Z,96.09
2019-05-03T05:31:39.702Z,95.94
2019-05-03T05:32:39.713Z,95.84
2019-05-03T05:33:39.673Z,96.19
2019-05-03T05:34:39.715Z,96.35
2019-05-03T05:35:39.676Z,96.15
2019-05-03T05:36:39.651Z,95.74
2019-05-03T05:37:39.652Z,95.94
2019-05-03T05:38:39.658Z,95.74
2019-05-03T05:39:39.616Z,95.94
2019-05-03T05:40:39.609Z,96.10
2019-05-03T05:41:39.588Z,96.15
2019-05-03T05:42:39.581Z,96.10
2019-05-03T05:43:39.587Z,96.10
2019-05-03T05:44:39.568Z,96.10
2019-05-03T05:45:39.598Z,95.49
2019-05-03T05:46:39.537Z,95.59
2019-05-03T05:47:39.535Z,95.69
2019-05-03T05:48:39.523Z,95.59
2019-05-03T05:49:39.523Z,95.69
2019-05-03T05:50:39.525Z,95.49
2019-05-03T05:51:39.484Z,95.69
2019-05-03T05:52:39.466Z,95.90
2019-05-03T05:53:39.485Z,95.59
2019-05-03T05:54:39.450Z,95.90
2019-05-03T05:55:39.446Z,95.59
2019-05-03T05:56:39.468Z,95.90
2019-05-03T05:57:39.406Z,95.49
2019-05-03T05:58:39.400Z,95.69
2019-05-03T05:59:39.393Z,94.67
2019-05-03T06:00:39.390Z,94.36
2019-05-03T06:01:39.402Z,94.26
2019-05-03T06:02:39.377Z,94.46
2019-05-03T06:03:39.340Z,94.56
2019-05-03T06:04:39.331Z,94.56
2019-05-03T06:05:39.338Z,94.98
2019-05-03T06:06:39.312Z,95.69
2019-05-03T06:07:39.320Z,95.18
2019-05-03T06:08:39.330Z,94.77
2019-05-03T06:09:39.273Z,94.46
2019-05-03T06:10:39.263Z,94.15
2019-05-03T06:11:39.297Z,94.77
2019-05-03T06:12:39.246Z,94.67
2019-05-03T06:13:39.255Z,95.44
2019-05-03T06:14:39.224Z,95.44
2019-05-03T06:15:39.208Z,94.62
2019-05-03T06:16:39.193Z,94.52
2019-05-03T06:17:39.187Z,94.21
2019-05-03T06:18:39.529Z,94.37
2019-05-03T06:19:39.183Z,93.96
2019-05-03T06:20:39.187Z,93.15
2019-05-03T06:21:39.137Z,94.27
2019-05-03T06:22:39.141Z,93.66
2019-05-03T06:23:39.205Z,94.17
2019-05-03T06:24:39.154Z,92.43
2019-05-03T06:25:39.112Z,91.71
2019-05-03T06:26:39.088Z,92.43
2019-05-03T06:27:39.072Z,92.74
2019-05-03T06:28:41.656Z,93.35
2019-05-03T06:29:39.100Z,93.71
2019-05-03T06:30:39.057Z,93.25
2019-05-03T06:31:39.052Z,93.35
2019-05-03T06:32:39.023Z,94.12
2019-05-03T06:33:39.013Z,93.92
2019-05-03T06:34:39.022Z,93.92
2019-05-03T06:35:39.005Z,93.82
2019-05-03T06:36:39.001Z,92.49
2019-05-03T06:37:39.002Z,92.08
2019-05-03T06:38:38.967Z,92.69
2019-05-03T06:39:38.939Z,92.79
2019-05-03T06:40:38.959Z,93.47
2019-05-03T06:41:38.947Z,93.30
2019-05-03T06:42:51.237Z,94.23
2019-05-03T06:43:39.570Z,93.57
2019-05-03T06:44:39.884Z,91.97
2019-05-03T06:45:41.150Z,92.59
2019-05-03T06:46:38.899Z,93.92
2019-05-03T06:47:40.337Z,93.62
2019-05-03T06:48:38.854Z,93.57
2019-05-03T06:49:39.235Z,93.51
2019-05-03T06:50:38.821Z,92.79
2019-05-03T06:51:40.009Z,92.49
2019-05-03T06:52:39.813Z,92.79
2019-05-03T06:53:41.741Z,92.96
2019-05-03T06:54:38.811Z,92.49
2019-05-03T06:55:40.044Z,92.28
2019-05-03T06:56:41.368Z,91.36
2019-05-03T06:57:40.149Z,91.56
2019-05-03T06:58:38.755Z,92.38
2019-05-03T06:59:38.730Z,91.87
2019-05-03T07:00:38.734Z,91.36
2019-05-03T07:01:38.695Z,91.77
2019-05-03T07:02:38.683Z,92.49
2019-05-03T07:03:38.705Z,91.46
2019-05-03T07:04:38.671Z,91.26
2019-05-03T07:05:38.669Z,92.69
2019-05-03T07:06:40.640Z,92.69
2019-05-03T07:07:38.631Z,91.46
2019-05-03T07:08:38.643Z,91.67
2019-05-03T07:09:38.609Z,92.38
2019-05-03T07:10:38.675Z,92.24
2019-05-03T07:11:38.602Z,92.59
2019-05-03T07:12:38.574Z,92.49
2019-05-03T07:13:38.578Z,92.69
2019-05-03T07:14:38.558Z,92.59
2019-05-03T07:15:38.542Z,92.44
2019-05-03T07:16:38.552Z,92.55
2019-05-03T07:17:38.540Z,92.38
2019-05-03T07:18:38.535Z,91.73
2019-05-03T07:19:38.512Z,92.24
2019-05-03T07:20:38.484Z,92.55
2019-05-03T07:21:38.477Z,91.42
2019-05-03T07:22:38.477Z,91.22
2019-05-03T07:23:38.469Z,90.13
2019-05-03T07:24:40.748Z,90.64
2019-05-03T07:25:38.430Z,91.56
2019-05-03T07:26:38.416Z,91.46
2019-05-03T07:27:38.415Z,90.95
2019-05-03T07:28:47.022Z,91.31
2019-05-03T07:29:38.406Z,91.46
2019-05-03T07:30:38.371Z,91.63
2019-05-03T07:31:38.360Z,91.63
2019-05-03T07:32:38.351Z,89.11
2019-05-03T07:33:38.367Z,89.31
2019-05-03T07:34:38.375Z,90.30
2019-05-03T07:35:38.349Z,91.52
2019-05-03T07:36:38.305Z,92.03
2019-05-03T07:37:38.364Z,91.22
2019-05-03T07:38:38.305Z,91.31
2019-05-03T07:39:38.286Z,89.31
2019-05-03T07:40:38.284Z,89.37
2019-05-03T07:41:38.249Z,90.30
2019-05-03T07:42:38.243Z,91.11
2019-05-03T07:43:38.245Z,89.92
2019-05-03T07:44:38.220Z,89.42
2019-05-03T07:45:38.230Z,89.51
2019-05-03T07:46:38.208Z,89.51
2019-05-03T07:47:38.206Z,90.17
2019-05-03T07:48:38.180Z,91.56
2019-05-03T07:49:38.161Z,91.40
2019-05-03T07:50:38.152Z,92.47
2019-05-03T07:51:38.158Z,93.60
2019-05-03T07:52:38.163Z,92.57
2019-05-03T07:53:38.155Z,92.41
2019-05-03T07:54:38.109Z,92.61
2019-05-03T07:55:38.103Z,93.64
2019-05-03T07:56:38.096Z,93.64
2019-05-03T07:57:38.101Z,93.85
2019-05-03T07:58:38.087Z,94.46
2019-05-03T07:59:38.053Z,94.36
2019-05-03T08:00:38.045Z,95.23
2019-05-03T08:01:38.039Z,95.49
2019-05-03T08:02:38.036Z,95.84
2019-05-03T08:03:38.021Z,95.23
2019-05-03T08:04:38.027Z,96.04
2019-05-03T08:05:38.032Z,96.66
2019-05-03T08:06:37.974Z,96.41
2019-05-03T08:07:37.963Z,96.51
2019-05-03T08:08:38.062Z,96.31
2019-05-03T08:09:37.968Z,95.59
2019-05-03T08:10:37.980Z,96.00
2019-05-03T08:11:37.918Z,96.10
2019-05-03T08:12:37.915Z,96.31
2019-05-03T08:13:37.917Z,96.41
2019-05-03T08:14:37.912Z,96.06
2019-05-03T08:15:37.918Z,95.49
2019-05-03T08:16:37.881Z,95.39
2019-05-03T08:17:37.857Z,95.79
2019-05-03T08:18:37.841Z,95.49
2019-05-03T08:19:37.846Z,95.69
2019-05-03T08:20:37.849Z,94.87
2019-05-03T08:21:38.960Z,94.81
2019-05-03T08:22:37.825Z,94.87
2019-05-03T08:23:37.796Z,95.49
2019-05-03T08:24:37.804Z,95.90
2019-05-03T08:25:37.768Z,95.69
2019-05-03T08:26:37.782Z,96.00
2019-05-03T08:27:37.754Z,95.59
2019-05-03T08:28:37.732Z,95.79
2019-05-03T08:29:37.719Z,95.28
2019-05-03T08:30:37.709Z,94.87
2019-05-03T08:31:37.704Z,94.36
2019-05-03T08:32:37.728Z,94.36
2019-05-03T08:33:37.697Z,95.44
2019-05-03T08:34:37.702Z,95.44
2019-05-03T08:35:37.662Z,94.42
2019-05-03T08:36:37.653Z,94.32
2019-05-03T08:37:37.638Z,94.52
2019-05-03T08:38:37.648Z,94.93
2019-05-03T08:39:37.622Z,95.54
2019-05-03T08:40:37.648Z,96.01
2019-05-03T08:41:37.588Z,95.50
2019-05-03T08:42:37.576Z,95.70
2019-05-03T08:43:37.593Z,95.46
2019-05-03T08:44:37.608Z,94.74
2019-05-03T08:45:37.567Z,93.71
2019-05-03T08:46:37.531Z,92.38
2019-05-03T08:47:37.520Z,93.62
2019-05-03T08:48:37.514Z,92.44
2019-05-03T08:49:37.519Z,92.34
2019-05-03T08:50:37.517Z,92.44
2019-05-03T08:51:37.503Z,94.39
2019-05-03T08:52:37.464Z,93.52
2019-05-03T08:53:37.453Z,93.01
2019-05-03T08:54:37.441Z,92.19
2019-05-03T08:55:37.461Z,92.40
2019-05-03T08:56:37.426Z,91.07
2019-05-03T08:57:37.407Z,92.30
2019-05-03T08:58:37.395Z,93.38
2019-05-03T08:59:37.392Z,92.40
2019-05-03T09:00:37.402Z,90.56
2019-05-03T09:01:39.424Z,91.27
2019-05-03T09:02:37.370Z,92.30
2019-05-03T09:03:38.410Z,91.38
2019-05-03T09:04:39.469Z,91.52
2019-05-03T09:05:38.419Z,92.24
2019-05-03T09:06:37.322Z,93.73
2019-05-03T09:07:37.314Z,92.55
2019-05-03T09:08:37.319Z,92.30
2019-05-03T09:09:37.273Z,92.24
2019-05-03T09:10:37.282Z,91.48
2019-05-03T09:11:37.270Z,91.17
2019-05-03T09:12:37.251Z,91.99
2019-05-03T09:13:37.252Z,92.50
2019-05-03T09:14:42.575Z,92.36
2019-05-03T09:15:38.222Z,92.52
2019-05-03T09:16:37.197Z,92.21
2019-05-03T09:17:37.179Z,88.88
2019-05-03T09:18:37.188Z,87.24
2019-05-03T09:19:37.179Z,89.18
2019-05-03T09:20:37.197Z,88.20
2019-05-03T09:21:37.141Z,88.57
2019-05-03T09:22:37.124Z,87.18
2019-05-03T09:23:37.120Z,89.03
2019-05-03T09:24:37.114Z,89.90
2019-05-03T09:25:37.112Z,90.05
2019-05-03T09:26:37.119Z,91.13
2019-05-03T09:27:37.076Z,91.54
2019-05-03T09:28:37.079Z,90.15
2019-05-03T09:29:43.231Z,91.27
2019-05-03T09:30:38.062Z,91.64
2019-05-03T09:31:37.097Z,89.33
2019-05-03T09:32:37.054Z,90.52
2019-05-03T09:33:37.006Z,91.27
2019-05-03T09:34:36.992Z,89.33
2019-05-03T09:35:36.989Z,90.05
2019-05-03T09:36:37.022Z,88.78
2019-05-03T09:37:36.978Z,88.68
2019-05-03T09:38:36.946Z,86.67
2019-05-03T09:39:36.935Z,89.39
2019-05-03T09:40:36.940Z,89.33
2019-05-03T09:41:36.922Z,89.84
2019-05-03T09:42:36.947Z,90.05
2019-05-03T09:43:36.917Z,89.43
2019-05-03T09:44:36.876Z,91.07
2019-05-03T09:45:36.864Z,88.41
2019-05-03T09:46:36.881Z,89.64
2019-05-03T09:47:36.855Z,90.31
2019-05-03T09:48:36.866Z,90.52
2019-05-03T09:49:36.847Z,88.78
2019-05-03T09:50:36.812Z,89.90
2019-05-03T09:51:36.872Z,88.68
2019-05-03T09:52:36.789Z,89.50
2019-05-03T09:53:36.793Z,90.72
2019-05-03T09:54:36.783Z,90.06
2019-05-03T09:55:36.752Z,88.68
2019-05-03T09:56:36.746Z,88.41
2019-05-03T09:57:36.744Z,90.11
2019-05-03T09:58:38.214Z,89.29
2019-05-03T09:59:36.719Z,88.78
2019-05-03T10:00:36.763Z,89.50
2019-05-03T10:01:36.723Z,89.43
2019-05-03T10:02:36.777Z,90.52
2019-05-03T10:03:36.674Z,90.72
2019-05-03T10:04:36.904Z,89.53
2019-05-03T10:05:36.656Z,90.66
2019-05-03T10:06:36.648Z,91.07
2019-05-03T10:07:36.618Z,89.53
2019-05-03T10:08:36.613Z,90.05
2019-05-03T10:09:36.618Z,89.74
2019-05-03T10:10:36.680Z,89.94
2019-05-03T10:11:36.610Z,90.56
2019-05-03T10:12:37.569Z,91.07
2019-05-03T10:13:36.552Z,91.38
2019-05-03T10:14:36.541Z,92.15
2019-05-03T10:15:36.544Z,91.44
2019-05-03T10:16:36.558Z,92.56
2019-05-03T10:17:36.526Z,92.97
2019-05-03T10:18:36.494Z,91.74
2019-05-03T10:19:40.078Z,90.41
2019-05-03T10:20:36.471Z,90.52
2019-05-03T10:21:36.542Z,89.12
2019-05-03T10:22:36.484Z,89.09
2019-05-03T10:23:36.456Z,89.90
2019-05-03T10:24:36.429Z,88.98
2019-05-03T10:25:36.421Z,87.90
2019-05-03T10:26:36.408Z,89.23
2019-05-03T10:27:36.418Z,89.43
2019-05-03T10:28:36.446Z,88.51
2019-05-03T10:29:36.391Z,89.53
2019-05-03T10:30:36.362Z,89.03
2019-05-03T10:31:36.346Z,90.56
2019-05-03T10:32:36.335Z,89.43
2019-05-03T10:33:36.340Z,89.84
2019-05-03T10:34:36.329Z,90.05
2019-05-03T10:35:36.322Z,90.05
2019-05-03T10:36:36.304Z,90.56
2019-05-03T10:37:36.282Z,89.23
2019-05-03T10:38:37.229Z,90.15
2019-05-03T10:39:36.369Z,89.53
2019-05-03T10:40:37.183Z,89.80
2019-05-03T10:41:36.256Z,91.13
2019-05-03T10:42:36.225Z,91.44
2019-05-03T10:43:36.227Z,92.15
2019-05-03T10:44:36.204Z,91.23
2019-05-03T10:45:36.215Z,89.59
2019-05-03T10:46:36.209Z,89.65
2019-05-03T10:47:36.203Z,89.65
2019-05-03T10:48:36.166Z,89.00
2019-05-03T10:49:36.160Z,88.33
2019-05-03T10:50:36.177Z,89.72
2019-05-03T10:51:36.144Z,88.33
2019-05-03T10:52:36.133Z,87.77
2019-05-03T10:53:36.101Z,88.43
2019-05-03T10:54:36.098Z,88.79
2019-05-03T10:55:36.143Z,87.88
2019-05-03T10:56:36.094Z,87.61
2019-05-03T10:57:36.087Z,88.29
2019-05-03T10:58:36.115Z,88.49
2019-05-03T10:59:36.033Z,89.26
2019-05-03T11:00:45.310Z,88.35
2019-05-03T11:01:37.037Z,86.20
2019-05-03T11:02:36.219Z,84.57
2019-05-03T11:03:36.001Z,84.67
2019-05-03T11:04:36.036Z,83.95
2019-05-03T11:05:35.965Z,85.38
2019-05-03T11:06:35.955Z,84.36
2019-05-03T11:07:35.940Z,84.98
2019-05-03T11:08:35.953Z,86.14
2019-05-03T11:09:48.897Z,86.76
2019-05-03T11:10:35.948Z,88.59
2019-05-03T11:11:35.898Z,88.29
2019-05-03T11:12:35.892Z,89.72
2019-05-03T11:13:35.895Z,89.31
2019-05-03T11:14:35.890Z,87.88
2019-05-03T11:15:35.871Z,88.18
2019-05-03T11:16:35.897Z,88.39
2019-05-03T11:17:35.874Z,89.11
2019-05-03T11:18:35.823Z,88.12
2019-05-03T11:19:35.903Z,87.82
2019-05-03T11:20:35.830Z,88.37
2019-05-03T11:21:35.804Z,88.62
2019-05-03T11:22:35.818Z,88.24
2019-05-03T11:23:35.767Z,89.04
2019-05-03T11:24:35.786Z,89.50
2019-05-03T11:25:35.773Z,90.67
2019-05-03T11:26:35.750Z,91.80
2019-05-03T11:27:35.738Z,92.55
2019-05-03T11:28:35.714Z,94.30
2019-05-03T11:29:35.732Z,94.71
2019-05-03T11:30:35.749Z,94.81
2019-05-03T11:31:35.716Z,95.12
2019-05-03T11:32:35.677Z,95.84
2019-05-03T11:33:35.670Z,94.87
2019-05-03T11:34:35.686Z,94.56
2019-05-03T11:35:35.646Z,94.67
2019-05-03T11:36:35.620Z,94.56
2019-05-03T11:37:35.622Z,92.82
2019-05-03T11:38:35.632Z,92.51
2019-05-03T11:39:35.615Z,92.61
2019-05-03T11:40:35.581Z,92.51
2019-05-03T11:41:35.900Z,92.61
2019-05-03T11:42:35.555Z,93.64
2019-05-03T11:43:35.577Z,93.64
2019-05-03T11:44:36.375Z,94.42
2019-05-03T11:45:35.550Z,93.70
2019-05-03T11:46:35.523Z,93.35
2019-05-03T11:47:35.496Z,93.35
2019-05-03T11:48:35.491Z,92.32
2019-05-03T11:49:35.497Z,92.59
2019-05-03T11:50:35.485Z,93.92
2019-05-03T11:51:35.458Z,94.18
2019-05-03T11:52:35.727Z,92.34
2019-05-03T11:53:35.602Z,91.58
2019-05-03T11:54:36.188Z,92.19
2019-05-03T11:55:35.468Z,92.91
2019-05-03T11:56:35.922Z,92.56
2019-05-03T11:57:35.822Z,92.36
2019-05-03T11:58:35.375Z,88.68
2019-05-03T11:59:35.385Z,88.53
2019-05-03T12:00:35.359Z,89.45
2019-05-03T12:01:35.857Z,89.76
2019-05-03T12:02:35.351Z,90.47
2019-05-03T12:03:35.580Z,89.25
2019-05-03T12:04:35.481Z,88.64
2019-05-03T12:05:35.305Z,88.23
2019-05-03T12:06:36.843Z,89.35
2019-05-03T12:07:39.699Z,89.76
2019-05-03T12:08:35.301Z,86.90
2019-05-03T12:09:35.259Z,87.82
2019-05-03T12:10:50.956Z,88.33
2019-05-03T12:11:36.241Z,88.64
2019-05-03T12:12:35.391Z,88.94
2019-05-03T12:13:35.274Z,88.43
2019-05-03T12:14:35.199Z,88.33
2019-05-03T12:15:35.375Z,88.02
2019-05-03T12:17:11.998Z,86.53
2019-05-03T12:17:36.687Z,88.47
2019-05-03T12:18:49.030Z,88.02
2019-05-03T12:19:37.759Z,87.96
2019-05-03T12:20:37.114Z,88.98
2019-05-03T12:21:37.676Z,88.02
2019-05-03T12:22:35.884Z,87.30
2019-05-03T12:23:36.583Z,88.33
2019-05-03T12:24:36.756Z,87.92
2019-05-03T12:25:36.168Z,87.47
2019-05-03T12:26:43.780Z,88.18
2019-05-03T12:27:35.053Z,87.77
2019-05-03T12:28:35.359Z,88.45
2019-05-03T12:29:35.327Z,83.95
2019-05-03T12:30:35.542Z,82.63
2019-05-03T12:31:40.152Z,83.44
2019-05-03T12:32:35.996Z,84.67
2019-05-03T12:33:35.584Z,83.75
2019-05-03T12:34:35.341Z,84.06
2019-05-03T12:35:35.770Z,83.61
2019-05-03T12:36:38.897Z,83.81
2019-05-03T12:37:35.456Z,83.92
2019-05-03T12:38:35.214Z,84.01
2019-05-03T12:39:35.870Z,82.93
2019-05-03T12:40:35.167Z,83.75
2019-05-03T12:41:34.918Z,82.77
2019-05-03T12:42:35.540Z,84.41
2019-05-03T12:43:34.888Z,85.22
2019-05-03T12:44:35.444Z,85.53
2019-05-03T12:45:35.524Z,85.22
2019-05-03T12:46:35.387Z,86.24
2019-05-03T12:47:34.877Z,86.35
2019-05-03T12:48:35.459Z,88.39
2019-05-03T12:49:35.831Z,87.67
2019-05-03T12:50:34.977Z,87.82
2019-05-03T12:51:34.785Z,87.71
2019-05-03T12:52:35.451Z,87.00